CZST Airport Information

Runway Information
Runway 18 Length 3900 ft width 75 ft
Elevation 0 ft Threshold 0 ft Heading 194
Runway 36 Length 3900 ft Width 75 ft
Elevation 0 ft Threshold 0 ft Heading 14
Airport Frequencies
Type ATF Name ATF Frequency 123.2 MHZ
Airport Navaids
Airport Weather Information & NOTAM
ADDS - METARS form results

(1852 UTC 22 March 2019)
Data provider http://aviationweather.gov/metar/data/
 
METAR text: CZST 221800Z 00000KT 15SM SCT100 BKN120 OVC200 04/01 A2982 RMK AC3AC2CS3 SLP100
Conditions at: CZST (STEWART AIRPORT , BC, CA) observed 1800 UTC 22 March 2019
Temperature: 4.0°C (39°F)
Dewpoint: 1.0°C (34°F) [RH = 81%]
Pressure (altimeter): 29.82 inches Hg (1009.9 mb)
[Sea-level pressure: 1010.0 mb]
Winds: calm
Visibility: 15 miles (24 km)
Ceiling: 12000 feet AGL
Clouds: scattered clouds at 10000 feet AGL
broken clouds at 12000 feet AGL
overcast cloud deck at 20000 feet AGL
Weather: no significant weather observed at this time